createdAt,value
2022-09-18T00:01:11.882Z,18.35
2022-09-18T00:03:42.557Z,18.39
2022-09-18T00:06:15.035Z,18.38
2022-09-18T00:08:43.695Z,18.40
2022-09-18T00:11:13.104Z,18.39
2022-09-18T00:13:40.354Z,18.38
2022-09-18T00:16:09.114Z,18.37
2022-09-18T00:18:36.571Z,18.40
2022-09-18T00:21:15.357Z,18.40
2022-09-18T00:23:42.557Z,18.40
2022-09-18T00:26:11.137Z,18.39
2022-09-18T00:28:38.221Z,18.39
2022-09-18T00:31:10.259Z,18.38
2022-09-18T00:33:37.682Z,18.42
2022-09-18T00:36:05.953Z,18.43
2022-09-18T00:38:33.211Z,18.43
2022-09-18T00:41:02.120Z,18.46
2022-09-18T00:43:31.603Z,18.44
2022-09-18T00:46:08.973Z,18.42
2022-09-18T00:49:13.096Z,18.44
2022-09-18T00:51:40.696Z,18.42
2022-09-18T00:54:25.652Z,18.40
2022-09-18T00:56:56.269Z,18.38
2022-09-18T00:59:27.532Z,18.39
2022-09-18T01:01:56.310Z,18.40
2022-09-18T01:04:23.529Z,18.37
2022-09-18T01:06:57.490Z,18.33
2022-09-18T01:09:49.695Z,18.38
2022-09-18T01:12:34.281Z,18.40
2022-09-18T01:15:19.318Z,18.40
2022-09-18T01:18:00.394Z,18.39
2022-09-18T01:20:57.034Z,18.38
2022-09-18T01:23:49.830Z,18.38
2022-09-18T01:26:19.089Z,18.41
2022-09-18T01:28:57.494Z,18.40
2022-09-18T01:31:41.904Z,18.35
2022-09-18T01:34:20.916Z,18.33
2022-09-18T01:36:55.269Z,18.33
2022-09-18T01:39:35.530Z,18.32
2022-09-18T01:42:05.078Z,18.35
2022-09-18T01:44:33.844Z,18.37
2022-09-18T01:47:05.903Z,18.37
2022-09-18T01:49:39.949Z,18.37
2022-09-18T01:52:28.441Z,18.33
2022-09-18T01:54:58.736Z,18.36
2022-09-18T01:57:32.902Z,18.38
2022-09-18T02:00:10.367Z,18.37
2022-09-18T02:02:42.722Z,18.37
2022-09-18T02:05:15.141Z,18.37
2022-09-18T02:07:56.780Z,18.36
2022-09-18T02:10:26.841Z,18.33
2022-09-18T02:12:57.629Z,18.32
2022-09-18T02:15:27.240Z,18.33
2022-09-18T02:17:59.215Z,18.32
2022-09-18T02:20:30.767Z,18.31
2022-09-18T02:23:02.276Z,18.33
2022-09-18T02:25:38.029Z,18.34
2022-09-18T02:28:08.398Z,18.33
2022-09-18T02:30:39.170Z,18.30
2022-09-18T02:33:28.557Z,18.28
2022-09-18T02:36:29.046Z,18.26
2022-09-18T02:38:58.181Z,18.24
2022-09-18T02:41:58.612Z,18.26
2022-09-18T02:44:48.549Z,18.26
2022-09-18T02:47:57.685Z,18.26
2022-09-18T02:50:49.880Z,18.22
2022-09-18T02:53:34.118Z,18.23
2022-09-18T02:56:06.601Z,18.23
2022-09-18T02:58:41.062Z,18.19
2022-09-18T03:01:09.047Z,18.19
2022-09-18T03:03:38.663Z,18.16
2022-09-18T03:06:06.729Z,18.14
2022-09-18T03:08:33.775Z,18.14
2022-09-18T03:11:00.533Z,18.12
2022-09-18T03:13:27.087Z,18.14
2022-09-18T03:15:55.639Z,18.18
2022-09-18T03:18:22.742Z,18.14
2022-09-18T03:20:49.419Z,18.12
2022-09-18T03:23:16.051Z,18.14
2022-09-18T03:25:42.678Z,18.11
2022-09-18T03:28:09.358Z,18.12
2022-09-18T03:30:36.386Z,18.11
2022-09-18T03:33:03.037Z,18.08
2022-09-18T03:35:29.653Z,18.08
2022-09-18T03:37:56.308Z,18.05
2022-09-18T03:40:23.204Z,18.06
2022-09-18T03:42:50.847Z,18.04
2022-09-18T03:45:17.880Z,18.05
2022-09-18T03:47:44.967Z,18.06
2022-09-18T03:50:11.590Z,18.04
2022-09-18T03:52:38.573Z,18.01
2022-09-18T03:55:05.617Z,18.02
2022-09-18T03:57:32.267Z,18.02
2022-09-18T03:59:58.877Z,18.02
2022-09-18T04:02:25.535Z,17.99
2022-09-18T04:04:53.892Z,17.98
2022-09-18T04:07:20.660Z,18.00
2022-09-18T04:09:47.260Z,17.96
2022-09-18T04:12:13.872Z,17.97
2022-09-18T04:14:40.471Z,17.91
2022-09-18T04:17:07.262Z,17.94
2022-09-18T04:19:33.802Z,17.94
2022-09-18T04:22:00.375Z,17.95
2022-09-18T04:24:27.509Z,17.95
2022-09-18T04:26:54.099Z,17.90
2022-09-18T04:29:20.860Z,17.92
2022-09-18T04:31:47.467Z,17.87
2022-09-18T04:34:14.938Z,17.92
2022-09-18T04:36:42.641Z,17.82
2022-09-18T04:39:09.314Z,17.77
2022-09-18T04:41:36.827Z,17.78
2022-09-18T04:44:03.536Z,17.86
2022-09-18T04:46:30.141Z,17.83
2022-09-18T04:48:56.730Z,17.84
2022-09-18T04:51:23.314Z,17.84
2022-09-18T04:53:49.852Z,17.84
2022-09-18T04:56:16.421Z,17.87
2022-09-18T04:58:43.065Z,17.86
2022-09-18T05:01:09.759Z,17.79
2022-09-18T05:03:36.345Z,17.77
2022-09-18T05:06:02.943Z,17.83
2022-09-18T05:08:30.037Z,17.82
2022-09-18T05:10:56.614Z,17.83
2022-09-18T05:13:24.013Z,17.86
2022-09-18T05:15:55.171Z,17.84
2022-09-18T05:18:21.807Z,17.85
2022-09-18T05:20:48.379Z,17.79
2022-09-18T05:23:15.201Z,17.77
2022-09-18T05:25:44.892Z,17.73
2022-09-18T05:28:13.291Z,17.76
2022-09-18T05:30:39.864Z,17.76
2022-09-18T05:33:10.878Z,17.78
2022-09-18T05:35:39.659Z,17.74
2022-09-18T05:38:06.318Z,17.74
2022-09-18T05:40:35.280Z,17.76
2022-09-18T05:43:03.200Z,17.76
2022-09-18T05:45:29.989Z,17.73
2022-09-18T05:47:59.215Z,17.72
2022-09-18T05:50:28.229Z,17.71
2022-09-18T05:53:06.654Z,17.74
2022-09-18T05:55:33.777Z,17.76
2022-09-18T05:58:01.788Z,17.76
2022-09-18T06:00:30.106Z,17.70
2022-09-18T06:02:58.973Z,17.67
2022-09-18T06:05:26.163Z,17.71
2022-09-18T06:07:57.619Z,17.68
2022-09-18T06:10:26.518Z,17.68
2022-09-18T06:13:03.449Z,17.73
2022-09-18T06:15:30.091Z,17.79
2022-09-18T06:17:56.714Z,17.80
2022-09-18T06:20:23.277Z,17.86
2022-09-18T06:22:49.992Z,17.84
2022-09-18T06:25:19.706Z,17.87
2022-09-18T06:27:46.271Z,17.88
2022-09-18T06:30:13.473Z,17.87
2022-09-18T06:32:40.032Z,17.88
2022-09-18T06:35:07.263Z,17.89
2022-09-18T06:37:33.851Z,17.83
2022-09-18T06:40:00.500Z,17.81
2022-09-18T06:42:27.139Z,17.82
2022-09-18T06:44:54.294Z,17.77
2022-09-18T06:47:20.940Z,17.79
2022-09-18T06:49:47.485Z,17.85
2022-09-18T06:52:14.037Z,17.87
2022-09-18T06:54:40.616Z,17.93
2022-09-18T06:57:07.658Z,17.97
2022-09-18T06:59:34.277Z,17.96
2022-09-18T07:02:00.925Z,17.95
2022-09-18T07:04:27.549Z,18.00
2022-09-18T07:06:54.133Z,17.99
2022-09-18T07:09:20.705Z,17.99
2022-09-18T07:11:47.283Z,18.02
2022-09-18T07:14:13.831Z,18.05
2022-09-18T07:16:40.530Z,18.02
2022-09-18T07:19:07.702Z,18.06
2022-09-18T07:21:34.292Z,18.04
2022-09-18T07:24:00.906Z,18.04
2022-09-18T07:26:27.594Z,18.02
2022-09-18T07:28:54.191Z,18.10
2022-09-18T07:31:20.813Z,18.13
2022-09-18T07:33:52.713Z,18.25
2022-09-18T07:36:19.527Z,18.25
2022-09-18T07:38:51.101Z,18.18
2022-09-18T07:41:17.661Z,18.05
2022-09-18T07:43:44.512Z,17.93
2022-09-18T07:46:11.405Z,18.04
2022-09-18T07:48:38.825Z,18.18
2022-09-18T07:51:05.670Z,18.25
2022-09-18T07:53:32.486Z,18.71
2022-09-18T07:55:59.294Z,19.04
2022-09-18T07:58:26.875Z,19.12
2022-09-18T08:00:53.459Z,19.40
2022-09-18T08:03:20.094Z,19.66
2022-09-18T08:05:46.687Z,19.66
2022-09-18T08:08:15.252Z,19.55
2022-09-18T08:10:43.945Z,19.61
2022-09-18T08:13:11.074Z,19.63
2022-09-18T08:15:39.798Z,19.77
2022-09-18T08:18:07.777Z,19.79
2022-09-18T08:20:35.256Z,19.79
2022-09-18T08:23:03.749Z,19.79
2022-09-18T08:25:30.409Z,19.69
2022-09-18T08:28:01.767Z,19.62
2022-09-18T08:30:29.587Z,19.56
2022-09-18T08:33:04.418Z,19.51
2022-09-18T08:35:31.881Z,19.45
2022-09-18T08:37:59.298Z,19.27
2022-09-18T08:40:42.253Z,19.53
2022-09-18T08:43:21.656Z,19.87
2022-09-18T08:46:00.723Z,20.29
2022-09-18T08:48:47.750Z,20.48
2022-09-18T08:51:26.162Z,20.51
2022-09-18T08:53:57.464Z,21.15
2022-09-18T08:56:25.715Z,21.43
2022-09-18T08:58:58.762Z,21.07
2022-09-18T09:01:35.257Z,20.75
2022-09-18T09:04:08.028Z,20.45
2022-09-18T09:07:21.913Z,20.70
2022-09-18T09:10:08.662Z,20.79
2022-09-18T09:13:11.351Z,21.19
2022-09-18T09:15:47.495Z,21.01
2022-09-18T09:18:20.722Z,21.14
2022-09-18T09:20:54.355Z,21.47
2022-09-18T09:23:57.794Z,21.89
2022-09-18T09:26:25.778Z,21.88
2022-09-18T09:29:01.800Z,22.50
2022-09-18T09:31:36.957Z,21.41
2022-09-18T09:34:15.614Z,21.06
2022-09-18T09:36:46.840Z,20.75
2022-09-18T09:39:41.426Z,21.82
2022-09-18T09:42:44.043Z,21.03
2022-09-18T09:45:22.329Z,20.78
2022-09-18T09:48:31.261Z,20.68
2022-09-18T09:51:32.470Z,21.34
2022-09-18T09:54:01.544Z,20.87
2022-09-18T09:56:33.944Z,21.31
2022-09-18T09:59:16.580Z,21.11
2022-09-18T10:01:51.965Z,22.44
2022-09-18T10:04:42.989Z,21.35
2022-09-18T10:07:46.412Z,22.00
2022-09-18T10:10:40.961Z,23.74
2022-09-18T10:13:28.084Z,24.39
2022-09-18T10:16:10.641Z,26.00
2022-09-18T10:18:42.100Z,23.61
2022-09-18T10:21:24.188Z,22.24
2022-09-18T10:23:57.873Z,22.52
2022-09-18T10:26:31.315Z,22.12
2022-09-18T10:28:58.969Z,24.17
2022-09-18T10:31:47.713Z,26.41
2022-09-18T10:34:45.714Z,24.30
2022-09-18T10:37:39.193Z,22.31
2022-09-18T10:40:26.258Z,22.27
2022-09-18T10:42:55.204Z,21.61
2022-09-18T10:45:25.365Z,21.34
2022-09-18T10:48:04.604Z,21.21
2022-09-18T10:50:34.345Z,20.98
2022-09-18T10:53:27.221Z,21.29
2022-09-18T10:55:55.916Z,21.13
2022-09-18T10:58:29.513Z,21.01
2022-09-18T11:01:07.972Z,20.80
2022-09-18T11:03:34.962Z,21.12
2022-09-18T11:06:10.257Z,21.23
2022-09-18T11:08:43.723Z,21.15
2022-09-18T11:11:34.728Z,21.17
2022-09-18T11:14:04.382Z,21.32
2022-09-18T11:16:45.422Z,21.48
2022-09-18T11:19:36.108Z,21.61
2022-09-18T11:22:05.828Z,21.42
2022-09-18T11:24:35.122Z,21.07
2022-09-18T11:27:04.125Z,21.01
2022-09-18T11:29:39.649Z,20.86
2022-09-18T11:32:13.755Z,20.83
2022-09-18T11:34:47.110Z,21.83
2022-09-18T11:37:22.131Z,22.91
2022-09-18T11:39:57.085Z,22.90
2022-09-18T11:42:23.963Z,23.00
2022-09-18T11:44:52.589Z,22.52
2022-09-18T11:47:22.866Z,24.80
2022-09-18T11:50:03.832Z,27.97
2022-09-18T11:52:58.029Z,28.20
2022-09-18T11:55:33.793Z,27.59
2022-09-18T11:58:16.254Z,27.12
2022-09-18T12:00:51.079Z,26.64
2022-09-18T12:03:39.963Z,26.39
2022-09-18T12:06:31.008Z,24.17
2022-09-18T12:09:11.613Z,22.78
2022-09-18T12:12:07.227Z,22.09
2022-09-18T12:14:51.077Z,21.81
2022-09-18T12:17:35.010Z,21.84
2022-09-18T12:20:06.977Z,21.73
2022-09-18T12:22:45.133Z,23.52
2022-09-18T12:25:14.268Z,23.08
2022-09-18T12:27:49.399Z,22.88
2022-09-18T12:30:18.409Z,23.13
2022-09-18T12:33:22.402Z,22.27
2022-09-18T12:36:26.594Z,21.92
2022-09-18T12:39:13.774Z,21.51
2022-09-18T12:42:04.813Z,21.16
2022-09-18T12:44:42.364Z,21.01
2022-09-18T12:47:45.437Z,20.91
2022-09-18T12:50:11.951Z,20.85
2022-09-18T12:52:55.467Z,20.87
2022-09-18T12:55:41.901Z,21.44
2022-09-18T12:58:45.425Z,21.50
2022-09-18T13:01:26.656Z,21.54
2022-09-18T13:04:01.845Z,21.82
2022-09-18T13:06:41.377Z,22.02
2022-09-18T13:09:27.941Z,22.38
2022-09-18T13:12:01.700Z,22.92
2022-09-18T13:14:50.396Z,23.09
2022-09-18T13:17:24.059Z,22.93
2022-09-18T13:19:59.339Z,23.19
2022-09-18T13:22:33.448Z,23.17
2022-09-18T13:25:01.229Z,22.99
2022-09-18T13:27:28.968Z,22.76
2022-09-18T13:29:58.914Z,22.56
2022-09-18T13:32:39.919Z,22.32
2022-09-18T13:35:23.619Z,22.09
2022-09-18T13:38:08.873Z,21.99
2022-09-18T13:40:39.080Z,21.76
2022-09-18T13:43:19.962Z,21.69
2022-09-18T13:45:47.061Z,21.59
2022-09-18T13:48:41.510Z,21.50
2022-09-18T13:51:18.318Z,21.42
2022-09-18T13:53:45.184Z,21.45
2022-09-18T13:56:14.432Z,21.47
2022-09-18T13:58:54.502Z,21.41
2022-09-18T14:01:40.031Z,21.45
2022-09-18T14:04:40.340Z,21.41
2022-09-18T14:07:19.689Z,21.34
2022-09-18T14:10:03.014Z,21.23
2022-09-18T14:12:34.648Z,21.19
2022-09-18T14:15:05.510Z,21.13
2022-09-18T14:17:34.032Z,21.10
2022-09-18T14:20:21.926Z,20.96
2022-09-18T14:22:48.675Z,20.88
2022-09-18T14:25:35.327Z,20.76
2022-09-18T14:28:05.305Z,20.68
2022-09-18T14:30:32.221Z,20.60
2022-09-18T14:33:06.219Z,20.54
2022-09-18T14:36:04.572Z,20.55
2022-09-18T14:38:36.286Z,20.46
2022-09-18T14:41:22.967Z,20.50
2022-09-18T14:43:55.981Z,20.52
2022-09-18T14:46:25.160Z,20.49
2022-09-18T14:48:52.203Z,20.43
2022-09-18T14:51:22.535Z,20.42
2022-09-18T14:53:54.154Z,20.23
2022-09-18T14:56:27.167Z,20.13
2022-09-18T14:58:53.798Z,19.99
2022-09-18T15:01:26.522Z,19.76
2022-09-18T15:03:55.352Z,19.66
2022-09-18T15:06:50.732Z,19.42
2022-09-18T15:09:25.987Z,19.28
2022-09-18T15:12:02.167Z,19.23
2022-09-18T15:14:43.999Z,19.18
2022-09-18T15:17:33.755Z,19.12
2022-09-18T15:20:07.228Z,19.16
2022-09-18T15:22:34.064Z,18.99
2022-09-18T15:25:02.005Z,18.81
2022-09-18T15:27:30.098Z,18.69
2022-09-18T15:30:02.864Z,18.60
2022-09-18T15:32:38.159Z,18.57
2022-09-18T15:35:08.661Z,18.53
2022-09-18T15:37:38.271Z,18.54
2022-09-18T15:40:21.258Z,18.51
2022-09-18T15:43:03.704Z,18.80
2022-09-18T15:45:32.646Z,18.91
2022-09-18T15:48:01.498Z,18.78
2022-09-18T15:50:33.783Z,18.83
2022-09-18T15:53:17.453Z,18.70
2022-09-18T15:55:54.101Z,18.81
2022-09-18T15:58:39.489Z,18.88
2022-09-18T16:01:14.709Z,19.01
2022-09-18T16:03:41.632Z,18.95
2022-09-18T16:06:10.937Z,18.88
2022-09-18T16:08:38.970Z,18.75
2022-09-18T16:11:06.686Z,18.68
2022-09-18T16:13:39.473Z,18.65
2022-09-18T16:16:11.230Z,18.59
2022-09-18T16:19:13.450Z,18.52
2022-09-18T16:21:44.860Z,18.47
2022-09-18T16:24:31.408Z,18.58
2022-09-18T16:27:06.384Z,18.87
2022-09-18T16:29:34.698Z,19.16
2022-09-18T16:32:01.630Z,19.24
2022-09-18T16:34:28.930Z,19.24
2022-09-18T16:36:56.131Z,19.19
2022-09-18T16:39:25.052Z,19.09
2022-09-18T16:41:52.450Z,19.12
2022-09-18T16:44:19.242Z,19.17
2022-09-18T16:47:00.567Z,19.13
2022-09-18T16:49:32.042Z,19.08
2022-09-18T16:51:59.108Z,18.86
2022-09-18T16:54:26.217Z,18.92
2022-09-18T16:57:06.332Z,19.16
2022-09-18T16:59:33.755Z,19.30
2022-09-18T17:02:05.153Z,19.32
2022-09-18T17:04:32.930Z,19.22
2022-09-18T17:07:00.075Z,19.13
2022-09-18T17:09:26.739Z,19.05
2022-09-18T17:11:54.283Z,18.95
2022-09-18T17:14:21.700Z,18.87
2022-09-18T17:16:48.551Z,18.82
2022-09-18T17:19:15.561Z,18.83
2022-09-18T17:21:42.723Z,18.85
2022-09-18T17:24:10.005Z,18.80
2022-09-18T17:26:38.501Z,18.76
2022-09-18T17:29:06.156Z,18.77
2022-09-18T17:31:32.873Z,18.73
2022-09-18T17:33:59.534Z,18.71
2022-09-18T17:36:26.275Z,18.74
2022-09-18T17:38:52.836Z,18.71
2022-09-18T17:41:20.181Z,18.68
2022-09-18T17:43:53.674Z,18.78
2022-09-18T17:46:20.508Z,18.71
2022-09-18T17:48:47.083Z,18.72
2022-09-18T17:51:18.307Z,18.72
2022-09-18T17:53:47.093Z,18.69
2022-09-18T17:56:16.750Z,18.73
2022-09-18T17:58:44.450Z,18.69
2022-09-18T18:01:20.090Z,18.72
2022-09-18T18:03:48.485Z,18.65
2022-09-18T18:06:20.985Z,18.67
2022-09-18T18:08:48.264Z,18.65
2022-09-18T18:11:16.974Z,18.59
2022-09-18T18:13:45.347Z,18.61
2022-09-18T18:16:23.774Z,18.55
2022-09-18T18:18:56.332Z,18.53
2022-09-18T18:21:23.356Z,18.48
2022-09-18T18:23:58.288Z,18.46
2022-09-18T18:26:25.421Z,18.44
2022-09-18T18:32:42.908Z,18.28
2022-09-18T18:35:13.731Z,18.20
2022-09-18T18:37:40.233Z,18.14
2022-09-18T18:40:07.229Z,18.10
2022-09-18T18:42:33.806Z,18.10
2022-09-18T18:45:01.050Z,18.08
2022-09-18T18:47:29.503Z,18.07
2022-09-18T18:49:59.159Z,18.05
2022-09-18T18:52:26.704Z,18.01
2022-09-18T18:54:53.446Z,18.05
2022-09-18T18:57:21.581Z,18.03
2022-09-18T18:59:48.101Z,18.05
2022-09-18T19:02:14.652Z,18.05
2022-09-18T19:04:43.038Z,18.07
2022-09-18T19:07:10.781Z,18.04
2022-09-18T19:09:37.316Z,18.06
2022-09-18T19:12:04.084Z,18.00
2022-09-18T19:14:37.826Z,18.00
2022-09-18T19:17:04.911Z,17.97
2022-09-18T19:19:31.743Z,17.97
2022-09-18T19:21:59.711Z,18.00
2022-09-18T19:24:27.215Z,17.99
2022-09-18T19:26:54.108Z,17.98
2022-09-18T19:29:21.609Z,17.99
2022-09-18T19:31:49.669Z,17.91
2022-09-18T19:34:19.331Z,17.85
2022-09-18T19:36:49.007Z,17.89
2022-09-18T19:39:16.373Z,17.93
2022-09-18T19:41:46.525Z,17.89
2022-09-18T19:44:19.148Z,17.84
2022-09-18T19:46:47.996Z,17.79
2022-09-18T19:49:19.556Z,17.76
2022-09-18T19:51:47.086Z,17.75
2022-09-18T19:54:13.862Z,17.73
2022-09-18T19:56:47.127Z,17.76
2022-09-18T19:59:15.109Z,17.80
2022-09-18T20:01:42.540Z,17.79
2022-09-18T20:04:09.514Z,17.75
2022-09-18T20:06:38.267Z,17.79
2022-09-18T20:09:05.345Z,17.74
2022-09-18T20:11:31.950Z,17.73
2022-09-18T20:13:58.487Z,17.72
2022-09-18T20:16:25.165Z,17.72
2022-09-18T20:18:51.715Z,17.65
2022-09-18T20:21:19.290Z,17.67
2022-09-18T20:23:46.932Z,17.72
2022-09-18T20:26:16.650Z,17.68
2022-09-18T20:28:43.697Z,17.62
2022-09-18T20:31:12.821Z,17.60
2022-09-18T20:33:39.798Z,17.61
2022-09-18T20:36:09.640Z,17.63
2022-09-18T20:38:40.147Z,17.60
2022-09-18T20:41:13.935Z,17.57
2022-09-18T20:43:42.013Z,17.56
2022-09-18T20:46:19.593Z,17.59
2022-09-18T20:48:57.925Z,17.60
2022-09-18T20:51:27.439Z,17.60
2022-09-18T20:53:58.926Z,17.59
2022-09-18T20:56:27.556Z,17.56
2022-09-18T20:58:54.589Z,17.54
2022-09-18T21:01:24.701Z,17.53
2022-09-18T21:03:57.599Z,17.48
2022-09-18T21:06:27.430Z,17.49
2022-09-18T21:08:55.513Z,17.52
2022-09-18T21:11:24.753Z,17.57
2022-09-18T21:13:53.575Z,17.58
2022-09-18T21:16:21.635Z,17.60
2022-09-18T21:18:49.374Z,17.54
2022-09-18T21:21:17.461Z,17.50
2022-09-18T21:23:53.277Z,17.52
2022-09-18T21:26:25.036Z,17.52
2022-09-18T21:29:12.625Z,17.51
2022-09-18T21:31:42.605Z,17.57
2022-09-18T21:34:15.602Z,17.60
2022-09-18T21:36:45.714Z,17.65
2022-09-18T21:39:14.270Z,17.61
2022-09-18T21:41:46.517Z,17.62
2022-09-18T21:44:21.085Z,17.64
2022-09-18T21:46:47.682Z,17.68
2022-09-18T21:49:16.027Z,17.67
2022-09-18T21:51:43.098Z,17.66
2022-09-18T21:54:15.119Z,17.72
2022-09-18T21:56:42.288Z,17.70
2022-09-18T21:59:10.014Z,17.70
2022-09-18T22:01:38.075Z,17.71
2022-09-18T22:04:07.262Z,17.70
2022-09-18T22:06:43.594Z,17.71
2022-09-18T22:09:13.165Z,17.68
2022-09-18T22:11:40.834Z,17.70
2022-09-18T22:14:11.314Z,17.70
2022-09-18T22:16:38.590Z,17.73
2022-09-18T22:19:08.220Z,17.74
2022-09-18T22:21:37.156Z,17.74
2022-09-18T22:24:12.325Z,17.74
2022-09-18T22:26:42.317Z,17.75
2022-09-18T22:29:14.704Z,17.74
2022-09-18T22:31:41.682Z,17.73
2022-09-18T22:34:08.253Z,17.70
2022-09-18T22:36:34.826Z,17.70
2022-09-18T22:39:01.399Z,17.72
2022-09-18T22:41:27.990Z,17.70
2022-09-18T22:43:56.327Z,17.73
2022-09-18T22:46:24.832Z,17.71
2022-09-18T22:48:52.040Z,17.66
2022-09-18T22:51:20.969Z,17.65
2022-09-18T22:53:56.486Z,17.65
2022-09-18T22:56:25.243Z,17.63
2022-09-18T22:58:52.983Z,17.62
2022-09-18T23:01:35.227Z,17.61
2022-09-18T23:04:03.640Z,17.63
2022-09-18T23:06:32.181Z,17.66
2022-09-18T23:09:03.383Z,17.63
2022-09-18T23:11:32.205Z,17.64
2022-09-18T23:14:02.042Z,17.63
2022-09-18T23:16:30.119Z,17.61
2022-09-18T23:19:04.597Z,17.62
2022-09-18T23:21:33.684Z,17.60
2022-09-18T23:24:04.853Z,17.60
2022-09-18T23:26:37.754Z,17.61
2022-09-18T23:29:07.154Z,17.63
2022-09-18T23:31:36.610Z,17.63
2022-09-18T23:34:06.482Z,17.57
2022-09-18T23:36:38.321Z,17.54
2022-09-18T23:39:10.741Z,17.52
2022-09-18T23:41:38.236Z,17.54
2022-09-18T23:44:07.385Z,17.52
2022-09-18T23:46:34.021Z,17.49
2022-09-18T23:49:00.848Z,17.47
2022-09-18T23:51:34.076Z,17.47
2022-09-18T23:54:03.229Z,17.42
2022-09-18T23:56:32.122Z,17.38
2022-09-18T23:59:01.356Z,17.39
